^^
Datos históricos de la estación: Murcia-Puente Tocinos
Diario Informe para Junio 26, 2019 Unidades:  Ambas    Ingés   Métrico
Diario Semanal Mensual Anual
  Máxima: Mínima: Promedio:
Temperatura: 71.6 °F /  22 °C 51.6 °F /  10.9 °C 60.4 °F /  15.8 °C
Punto de rocio: 55.2 °F /  12.9 °C 47.1 °F /  8.4 °C 50.5 °F /  10.3 °C
Humedad: 85% 44% 71%
Velocidad viento: 8.7mph /  14km/h - 4mph /  6.4km/h
Racha viento: 17.3mph /  27.8km/h - -
Viento- - SSO
Presión: 30 in /  1014.8 hPa 29.8 in /  1009.6 hPa -
Precipitación: 0 in /  0.0 mm    
 
 
Tabla de datos para Junio 26, 2019
Hora Temperatura Punto de rocio Presión Viento Velocidad viento Racha viento Humedad Intensidad lluvia(por hora) Nubes
00:04 58.6 °F /  14.8 °C 50.5 °F /  10.3 °C 30in /  1014.6hPa SE 3.1mph /  5km/h 6.2mph /  10km/h 74.3% 0in /  0.0mm
00:09 57.9 °F /  14.4 °C 50.5 °F /  10.3 °C 30in /  1014.8hPa SSE 3.1mph /  5km/h 9.2mph /  14.8km/h 76% 0in /  0.0mm
00:14 57.7 °F /  14.3 °C 50.5 °F /  10.3 °C 30in /  1014.8hPa Sur 4.5mph /  7.3km/h 9mph /  14.5km/h 77% 0in /  0.0mm
00:19 57.7 °F /  14.3 °C 50.5 °F /  10.3 °C 30in /  1014.8hPa Sur 5.2mph /  8.4km/h 7mph /  11.3km/h 77% 0in /  0.0mm
00:24 57.7 °F /  14.3 °C 50.5 °F /  10.3 °C 30in /  1014.8hPa Sur 4.8mph /  7.8km/h 7mph /  11.3km/h 77% 0in /  0.0mm
00:29 57.7 °F /  14.3 °C 50.7 °F /  10.4 °C 30in /  1014.8hPa SSO 4.7mph /  7.6km/h 7mph /  11.3km/h 77% 0in /  0.0mm
00:34 58.1 °F /  14.5 °C 50.7 °F /  10.4 °C 30in /  1014.8hPa SSE 4mph /  6.4km/h 6mph /  9.7km/h 76.3% 0in /  0.0mm
00:39 58.1 °F /  14.5 °C 50.5 °F /  10.3 °C 30in /  1014.8hPa ENE 3.6mph /  5.8km/h 3mph /  4.8km/h 76% 0in /  0.0mm
00:44 57.9 °F /  14.4 °C 50.5 °F /  10.3 °C 30in /  1014.7hPa Este 2.4mph /  3.8km/h 3.6mph /  5.8km/h 76.3% 0in /  0.0mm
00:49 57.7 °F /  14.3 °C 50.5 °F /  10.3 °C 30in /  1014.7hPa ESE 1.8mph /  2.9km/h 4mph /  6.4km/h 77% 0in /  0.0mm
00:54 57.6 °F /  14.2 °C 50.4 °F /  10.2 °C 30in /  1014.7hPa NNO 1.8mph /  2.9km/h 4mph /  6.4km/h 77.2% 0in /  0.0mm
00:59 57.2 °F /  14 °C 50.4 °F /  10.2 °C 30in /  1014.6hPa NO 1.8mph /  2.9km/h 4mph /  6.4km/h 78% 0in /  0.0mm
01:04 56.8 °F /  13.8 °C 50.2 °F /  10.1 °C 30in /  1014.6hPa NO 1.8mph /  2.9km/h 4mph /  6.4km/h 78.3% 0in /  0.0mm
01:09 56.8 °F /  13.8 °C 50.4 °F /  10.2 °C 30in /  1014.6hPa NO 1.8mph /  2.9km/h 5.8mph /  9.3km/h 79% 0in /  0.0mm
01:14 56.8 °F /  13.8 °C 50.4 °F /  10.2 °C 30in /  1014.5hPa Oeste 2.2mph /  3.6km/h 6mph /  9.7km/h 79% 0in /  0.0mm
01:19 56.7 °F /  13.7 °C 50.2 °F /  10.1 °C 30in /  1014.5hPa SSO 2.4mph /  3.9km/h 5.9mph /  9.5km/h 79% 0in /  0.0mm
01:24 56.7 °F /  13.7 °C 50.2 °F /  10.1 °C 30in /  1014.5hPa SSO 2.7mph /  4.4km/h 6mph /  9.7km/h 79.2% 0in /  0.0mm
01:29 56.7 °F /  13.7 °C 50.4 °F /  10.2 °C 30in /  1014.4hPa OSO 2.9mph /  4.7km/h 5mph /  8km/h 79.3% 0in /  0.0mm
01:34 56.7 °F /  13.7 °C 50.2 °F /  10.1 °C 30in /  1014.4hPa OSO 2.9mph /  4.7km/h 5mph /  8km/h 79% 0in /  0.0mm
01:39 56.7 °F /  13.7 °C 50 °F /  10 °C 30in /  1014.4hPa OSO 2.9mph /  4.7km/h 5mph /  8km/h 79% 0in /  0.0mm
01:44 56.5 °F /  13.6 °C 50 °F /  10 °C 30in /  1014.2hPa OSO 2.2mph /  3.6km/h 4mph /  6.4km/h 79% 0in /  0.0mm
01:49 56.3 °F /  13.5 °C 50 °F /  10 °C 30in /  1014.2hPa ENE 2mph /  3.2km/h 5mph /  8km/h 79% 0in /  0.0mm
01:54 55.9 °F /  13.3 °C 49.8 °F /  9.9 °C 30in /  1014.2hPa Este 2.3mph /  3.7km/h 5mph /  8km/h 79.8% 0in /  0.0mm
01:59 55.8 °F /  13.2 °C 50 °F /  10 °C 29.9in /  1013.9hPa Este 2.4mph /  3.9km/h 5mph /  8km/h 80.6% 0in /  0.0mm
02:04 55.8 °F /  13.2 °C 49.8 °F /  9.9 °C 29.9in /  1013.9hPa ESE 1.7mph /  2.7km/h 4.7mph /  7.6km/h 81% 0in /  0.0mm
02:09 55.6 °F /  13.1 °C 50 °F /  10 °C 29.9in /  1013.9hPa SE 1.4mph /  2.2km/h 5.4mph /  8.7km/h 81.4% 0in /  0.0mm
02:14 55.2 °F /  12.9 °C 49.8 °F /  9.9 °C 29.9in /  1013.8hPa ESE 2.1mph /  3.3km/h 6mph /  9.7km/h 82% 0in /  0.0mm
02:19 55.2 °F /  12.9 °C 49.8 °F /  9.9 °C 29.9in /  1013.8hPa ESE 2.4mph /  3.9km/h 6mph /  9.7km/h 82% 0in /  0.0mm
02:24 55.2 °F /  12.9 °C 49.8 °F /  9.9 °C 29.9in /  1013.8hPa SSE 2mph /  3.2km/h 5.9mph /  9.5km/h 82% 0in /  0.0mm
02:29 55.2 °F /  12.9 °C 49.8 °F /  9.9 °C 29.9in /  1013.8hPa SSE 1.8mph /  2.9km/h 6.2mph /  10km/h 82% 0in /  0.0mm
02:34 55.2 °F /  12.9 °C 49.8 °F /  9.9 °C 29.9in /  1013.8hPa Sur 3mph /  4.9km/h 6mph /  9.7km/h 82% 0in /  0.0mm
02:39 55.2 °F /  12.9 °C 49.8 °F /  9.9 °C 29.9in /  1013.8hPa SSO 3.6mph /  5.8km/h 6mph /  9.7km/h 82% 0in /  0.0mm
02:44 55.2 °F /  12.9 °C 49.6 °F /  9.8 °C 29.9in /  1013.8hPa Sur 3.6mph /  5.8km/h 6mph /  9.7km/h 81.3% 0in /  0.0mm
02:49 55.2 °F /  12.9 °C 49.5 °F /  9.7 °C 29.9in /  1013.8hPa SSE 3.6mph /  5.8km/h 5.2mph /  8.4km/h 81% 0in /  0.0mm
02:54 55 °F /  12.8 °C 49.5 °F /  9.7 °C 29.9in /  1013.9hPa Sur 3.2mph /  5.2km/h 5mph /  8km/h 81.4% 0in /  0.0mm
02:59 55 °F /  12.8 °C 49.6 °F /  9.8 °C 29.9in /  1013.9hPa Sur 3.1mph /  5km/h 5.2mph /  8.4km/h 82% 0in /  0.0mm
03:04 54.9 °F /  12.7 °C 49.5 °F /  9.7 °C 29.9in /  1013.9hPa SSO 3mph /  4.8km/h 5mph /  8km/h 82% 0in /  0.0mm
03:09 55 °F /  12.8 °C 49.6 °F /  9.8 °C 29.9in /  1014.0hPa Oeste 2.9mph /  4.7km/h 5mph /  8km/h 81.9% 0in /  0.0mm
03:14 55 °F /  12.8 °C 49.3 °F /  9.6 °C 29.9in /  1014.0hPa OSO 2.1mph /  3.4km/h 4mph /  6.4km/h 81% 0in /  0.0mm
03:19 55 °F /  12.8 °C 49.3 °F /  9.6 °C 29.9in /  1014.0hPa SO 1.8mph /  2.9km/h 4mph /  6.4km/h 81% 0in /  0.0mm
03:24 54.9 °F /  12.7 °C 49.1 °F /  9.5 °C 29.9in /  1014.0hPa SO 1.8mph /  2.9km/h 4.6mph /  7.4km/h 81% 0in /  0.0mm
03:29 54.9 °F /  12.7 °C 49.5 °F /  9.7 °C 29.9in /  1013.9hPa SSO 1.8mph /  2.9km/h 5mph /  8km/h 81.9% 0in /  0.0mm
03:34 54.7 °F /  12.6 °C 49.3 °F /  9.6 °C 29.9in /  1013.9hPa SSE 2.5mph /  4.1km/h 5mph /  8km/h 82% 0in /  0.0mm
03:39 54.7 °F /  12.6 °C 49.3 °F /  9.6 °C 29.9in /  1013.9hPa Sur 2.9mph /  4.7km/h 5mph /  8km/h 82% 0in /  0.0mm
03:44 54.7 °F /  12.6 °C 49.3 °F /  9.6 °C 29.9in /  1013.9hPa SO 2.9mph /  4.7km/h 6.2mph /  10km/h 82% 0in /  0.0mm
03:49 54.9 °F /  12.7 °C 49.3 °F /  9.6 °C 29.9in /  1013.9hPa SO 2.9mph /  4.7km/h 6.2mph /  10km/h 81.5% 0in /  0.0mm
03:54 54.9 °F /  12.7 °C 49.1 °F /  9.5 °C 29.9in /  1013.9hPa SO 3.6mph /  5.8km/h 6.9mph /  11.1km/h 81% 0in /  0.0mm
03:59 54.9 °F /  12.7 °C 49.1 °F /  9.5 °C 29.9in /  1013.9hPa SO 4mph /  6.5km/h 7mph /  11.3km/h 81% 0in /  0.0mm
04:04 54.9 °F /  12.7 °C 48.9 °F /  9.4 °C 29.9in /  1013.9hPa SO 4.2mph /  6.8km/h 7mph /  11.3km/h 80.6% 0in /  0.0mm
04:09 54.9 °F /  12.7 °C 48.7 °F /  9.3 °C 29.9in /  1013.9hPa SO 4.3mph /  6.9km/h 6.2mph /  10km/h 80% 0in /  0.0mm
04:14 54.9 °F /  12.7 °C 48.7 °F /  9.3 °C 29.9in /  1013.8hPa OSO 4.1mph /  6.6km/h 6mph /  9.7km/h 80% 0in /  0.0mm
04:19 54.9 °F /  12.7 °C 48.7 °F /  9.3 °C 29.9in /  1013.8hPa OSO 4mph /  6.5km/h 5mph /  8km/h 80% 0in /  0.0mm
04:24 54.7 °F /  12.6 °C 48.6 °F /  9.2 °C 29.9in /  1013.8hPa OSO 2.5mph /  4km/h 4mph /  6.4km/h 80% 0in /  0.0mm
04:29 54.7 °F /  12.6 °C 48.6 °F /  9.2 °C 29.9in /  1013.8hPa OSO 1.8mph /  2.9km/h 2.4mph /  3.9km/h 80% 0in /  0.0mm
04:34 54.1 °F /  12.3 °C 48.2 °F /  9 °C 29.9in /  1013.8hPa Sur 0.6mph /  0.9km/h 2.9mph /  4.7km/h 80% 0in /  0.0mm
04:39 53.8 °F /  12.1 °C 47.8 °F /  8.8 °C 29.9in /  1013.8hPa Calm   5.2mph /  8.4km/h 80.4% 0in /  0.0mm
04:44 53.2 °F /  11.8 °C 47.8 °F /  8.8 °C 29.9in /  1013.8hPa OSO 1.6mph /  2.6km/h 5.2mph /  8.4km/h 81.8% 0in /  0.0mm
04:49 53.1 °F /  11.7 °C 48.2 °F /  9 °C 29.9in /  1013.8hPa OSO 2.4mph /  3.9km/h 5.9mph /  9.5km/h 83.5% 0in /  0.0mm
04:54 53.4 °F /  11.9 °C 48.6 °F /  9.2 °C 29.9in /  1013.8hPa OSO 3.2mph /  5.2km/h 6.9mph /  11.1km/h 83.9% 0in /  0.0mm
04:59 54 °F /  12.2 °C 48.7 °F /  9.3 °C 29.9in /  1013.7hPa OSO 3.6mph /  5.8km/h 7mph /  11.3km/h 82.7% 0in /  0.0mm
05:04 54.1 °F /  12.3 °C 48.7 °F /  9.3 °C 29.9in /  1013.7hPa SO 4.1mph /  6.6km/h 6mph /  9.7km/h 82% 0in /  0.0mm
05:09 54.1 °F /  12.3 °C 48.6 °F /  9.2 °C 29.9in /  1013.9hPa Sur 4.3mph /  6.9km/h 6mph /  9.7km/h 81.3% 0in /  0.0mm
05:14 54.1 °F /  12.3 °C 48.4 °F /  9.1 °C 29.9in /  1013.9hPa Sur 3.5mph /  5.6km/h 5mph /  8km/h 81% 0in /  0.0mm
05:19 54 °F /  12.2 °C 48.4 °F /  9.1 °C 29.9in /  1013.9hPa Oeste 3.1mph /  5km/h 5mph /  8km/h 81% 0in /  0.0mm
05:24 54 °F /  12.2 °C 48.2 °F /  9 °C 29.9in /  1014.0hPa SO 2mph /  3.2km/h 5.9mph /  9.5km/h 81% 0in /  0.0mm
05:29 53.2 °F /  11.8 °C 47.5 °F /  8.6 °C 29.9in /  1014.0hPa SSE 1.4mph /  2.2km/h 8.5mph /  13.7km/h 80.6% 0in /  0.0mm
05:34 52.3 °F /  11.3 °C 47.3 °F /  8.5 °C 29.9in /  1014.0hPa SSE 4mph /  6.4km/h 10.7mph /  17.2km/h 82.6% 0in /  0.0mm
05:39 52.2 °F /  11.2 °C 47.5 °F /  8.6 °C 29.9in /  1014.0hPa SSE 5.2mph /  8.4km/h 13.8mph /  22.2km/h 83.9% 0in /  0.0mm
05:44 51.8 °F /  11 °C 47.3 °F /  8.5 °C 29.9in /  1013.8hPa Sur 6.8mph /  11km/h 14mph /  22.5km/h 84.5% 0in /  0.0mm
05:49 51.8 °F /  11 °C 47.3 °F /  8.5 °C 29.9in /  1013.8hPa Sur 7.6mph /  12.2km/h 12mph /  19.3km/h 85% 0in /  0.0mm
05:54 52.2 °F /  11.2 °C 47.8 °F /  8.8 °C 29.9in /  1013.8hPa SSO 7.5mph /  12km/h 11mph /  17.7km/h 85% 0in /  0.0mm
05:59 52.7 °F /  11.5 °C 48.2 °F /  9 °C 29.9in /  1013.6hPa SSO 7.4mph /  11.9km/h 9mph /  14.5km/h 84.7% 0in /  0.0mm
06:04 53.2 °F /  11.8 °C 48.4 °F /  9.1 °C 29.9in /  1013.6hPa SO 5.8mph /  9.4km/h 7mph /  11.3km/h 83.5% 0in /  0.0mm
06:09 53.6 °F /  12 °C 48.2 °F /  9 °C 29.9in /  1013.7hPa OSO 5.2mph /  8.4km/h 6.4mph /  10.3km/h 82.2% 0in /  0.0mm
06:14 53.4 °F /  11.9 °C 47.7 °F /  8.7 °C 29.9in /  1013.7hPa Oeste 4.3mph /  7km/h 7mph /  11.3km/h 81.1% 0in /  0.0mm
06:19 53.1 °F /  11.7 °C 47.8 °F /  8.8 °C 29.9in /  1013.7hPa OSO 4mph /  6.5km/h 9.2mph /  14.8km/h 81.9% 0in /  0.0mm
06:24 52.9 °F /  11.6 °C 47.8 °F /  8.8 °C 29.9in /  1013.7hPa OSO 4.5mph /  7.2km/h 10.7mph /  17.2km/h 82.7% 0in /  0.0mm
06:29 52.5 °F /  11.4 °C 47.5 °F /  8.6 °C 29.9in /  1013.6hPa OSO 4.7mph /  7.6km/h 11mph /  17.7km/h 83% 0in /  0.0mm
06:34 52.5 °F /  11.4 °C 47.5 °F /  8.6 °C 29.9in /  1013.6hPa SO 5mph /  8.1km/h 8mph /  12.9km/h 83.1% 0in /  0.0mm
06:39 52.5 °F /  11.4 °C 47.7 °F /  8.7 °C 29.9in /  1013.8hPa SE 5.2mph /  8.4km/h 6.9mph /  11.1km/h 83.5% 0in /  0.0mm
06:44 52.5 °F /  11.4 °C 47.5 °F /  8.6 °C 29.9in /  1013.8hPa SSE 4.1mph /  6.6km/h 7mph /  11.3km/h 83% 0in /  0.0mm
06:49 52.3 °F /  11.3 °C 47.5 °F /  8.6 °C 29.9in /  1013.8hPa SSE 3.6mph /  5.8km/h 9.2mph /  14.8km/h 83.9% 0in /  0.0mm
06:54 52.2 °F /  11.2 °C 47.5 °F /  8.6 °C 29.9in /  1013.8hPa Sur 4.8mph /  7.8km/h 10.4mph /  16.7km/h 84% 0in /  0.0mm
06:59 52 °F /  11.1 °C 47.3 °F /  8.5 °C 29.9in /  1013.7hPa Sur 5.4mph /  8.7km/h 10.4mph /  16.7km/h 84% 0in /  0.0mm
07:04 51.6 °F /  10.9 °C 47.1 °F /  8.4 °C 29.9in /  1013.7hPa SSO 5.8mph /  9.3km/h 9.2mph /  14.8km/h 84.7% 0in /  0.0mm
07:09 51.8 °F /  11 °C 47.5 °F /  8.6 °C 29.9in /  1013.8hPa SSO 5.9mph /  9.5km/h 9.7mph /  15.6km/h 85% 0in /  0.0mm
07:14 52.2 °F /  11.2 °C 47.7 °F /  8.7 °C 29.9in /  1013.8hPa SSO 6.1mph /  9.8km/h 10mph /  16.1km/h 85% 0in /  0.0mm
07:19 52.2 °F /  11.2 °C 47.5 °F /  8.6 °C 29.9in /  1013.8hPa SSO 6.2mph /  10km/h 9mph /  14.5km/h 84% 0in /  0.0mm
07:24 52.2 °F /  11.2 °C 47.5 °F /  8.6 °C 29.9in /  1013.8hPa Sur 5.2mph /  8.3km/h 7mph /  11.3km/h 84% 0in /  0.0mm
07:29 52.3 °F /  11.3 °C 47.7 °F /  8.7 °C 29.9in /  1013.8hPa Sur 4.7mph /  7.6km/h 5mph /  8km/h 84.3% 0in /  0.0mm
07:34 52.5 °F /  11.4 °C 47.7 °F /  8.7 °C 29.9in /  1013.8hPa SSO 3.1mph /  5km/h 5mph /  8km/h 84% 0in /  0.0mm
07:39 52.5 °F /  11.4 °C 47.8 °F /  8.8 °C 29.9in /  1013.9hPa SO 2.4mph /  3.9km/h 5mph /  8km/h 84% 0in /  0.0mm
07:44 52.5 °F /  11.4 °C 47.8 °F /  8.8 °C 29.9in /  1013.9hPa SO 2mph /  3.2km/h 3.5mph /  5.6km/h 83.7% 0in /  0.0mm
07:49 52.5 °F /  11.4 °C 47.5 °F /  8.6 °C 29.9in /  1013.9hPa OSO 1.8mph /  2.9km/h 5.2mph /  8.4km/h 83% 0in /  0.0mm
07:54 52.5 °F /  11.4 °C 47.5 °F /  8.6 °C 29.9in /  1013.9hPa Oeste 2.5mph /  4.1km/h 5mph /  8km/h 83% 0in /  0.0mm
07:59 52.3 °F /  11.3 °C 47.3 °F /  8.5 °C 29.9in /  1013.8hPa OSO 2.9mph /  4.7km/h 5.2mph /  8.4km/h 83% 0in /  0.0mm
08:04 52.2 °F /  11.2 °C 47.3 °F /  8.5 °C 29.9in /  1013.8hPa Oeste 3mph /  4.9km/h 5mph /  8km/h 83% 0in /  0.0mm
08:09 52.2 °F /  11.2 °C 47.5 °F /  8.6 °C 29.9in /  1013.9hPa OSO 3.1mph /  5km/h 5.2mph /  8.4km/h 83.7% 0in /  0.0mm
08:14 52.2 °F /  11.2 °C 47.5 °F /  8.6 °C 29.9in /  1013.9hPa OSO 3.4mph /  5.5km/h 5.2mph /  8.4km/h 84% 0in /  0.0mm
08:19 52.2 °F /  11.2 °C 47.5 °F /  8.6 °C 29.9in /  1013.9hPa OSO 3.6mph /  5.8km/h 5.2mph /  8.4km/h 84% 0in /  0.0mm
08:24 52.3 °F /  11.3 °C 47.5 °F /  8.6 °C 29.9in /  1014.1hPa OSO 3.2mph /  5.2km/h 5mph /  8km/h 83.9% 0in /  0.0mm
08:29 52.3 °F /  11.3 °C 47.7 °F /  8.7 °C 29.9in /  1014.1hPa SO 3.1mph /  5km/h 5mph /  8km/h 84% 0in /  0.0mm
08:34 52.7 °F /  11.5 °C 47.8 °F /  8.8 °C 29.9in /  1014.1hPa Sur 3mph /  4.8km/h 5mph /  8km/h 83.3% 0in /  0.0mm
08:39 53.1 °F /  11.7 °C 48 °F /  8.9 °C 29.9in /  1014.1hPa Sur 2.9mph /  4.7km/h 5mph /  8km/h 83% 0in /  0.0mm
08:44 53.2 °F /  11.8 °C 48 °F /  8.9 °C 29.9in /  1014.1hPa SSE 2.9mph /  4.7km/h 5mph /  8km/h 82.2% 0in /  0.0mm
08:49 53.4 °F /  11.9 °C 48.2 °F /  9 °C 29.9in /  1014.1hPa SSE 2.9mph /  4.7km/h 2mph /  3.2km/h 82% 0in /  0.0mm
08:54 53.8 °F /  12.1 °C 48.2 °F /  9 °C 29.9in /  1014.1hPa SSE 0.9mph /  1.4km/h 3.1mph /  5km/h 81.6% 0in /  0.0mm
08:59 53.8 °F /  12.1 °C 48 °F /  8.9 °C 29.9in /  1014.1hPa Calm   3.6mph /  5.8km/h 81% 0in /  0.0mm
09:04 54 °F /  12.2 °C 48.2 °F /  9 °C 29.9in /  1014.1hPa SSE 1.3mph /  2.1km/h 4mph /  6.4km/h 81% 0in /  0.0mm
09:09 54 °F /  12.2 °C 48.4 °F /  9.1 °C 29.9in /  1014.1hPa SSE 1.8mph /  2.9km/h 3.1mph /  5km/h 81% 0in /  0.0mm
09:14 54.1 °F /  12.3 °C 48.2 °F /  9 °C 29.9in /  1014.1hPa SSE 1.6mph /  2.5km/h 4.6mph /  7.4km/h 80.4% 0in /  0.0mm
09:19 54.1 °F /  12.3 °C 48 °F /  8.9 °C 29.9in /  1014.1hPa Sur 1.4mph /  2.2km/h 5mph /  8km/h 80% 0in /  0.0mm
09:24 54.3 °F /  12.4 °C 48.2 °F /  9 °C 29.9in /  1014.1hPa Sur 2.1mph /  3.3km/h 5mph /  8km/h 80% 0in /  0.0mm
09:29 54.5 °F /  12.5 °C 48.6 °F /  9.2 °C 29.9in /  1014.0hPa SSO 2.4mph /  3.9km/h 3.5mph /  5.6km/h 80% 0in /  0.0mm
09:34 54.9 °F /  12.7 °C 48.7 °F /  9.3 °C 29.9in /  1014.0hPa SO 2mph /  3.2km/h 3.5mph /  5.6km/h 80% 0in /  0.0mm
09:39 55 °F /  12.8 °C 48.9 °F /  9.4 °C 29.9in /  1014.0hPa SO 1.8mph /  2.9km/h 3.6mph /  5.8km/h 80% 0in /  0.0mm
09:44 55.4 °F /  13 °C 49.1 °F /  9.5 °C 29.9in /  1014.0hPa SO 1.9mph /  3.1km/h 4.6mph /  7.4km/h 79.3% 0in /  0.0mm
09:49 55.6 °F /  13.1 °C 49.1 °F /  9.5 °C 29.9in /  1014.0hPa SO 2mph /  3.2km/h 5.9mph /  9.5km/h 78.7% 0in /  0.0mm
09:54 55.8 °F /  13.2 °C 48.9 °F /  9.4 °C 30in /  1014.2hPa SO 2.7mph /  4.4km/h 6mph /  9.7km/h 78% 0in /  0.0mm
09:59 55.9 °F /  13.3 °C 49.3 °F /  9.6 °C 30in /  1014.2hPa SSO 3.1mph /  5km/h 5.8mph /  9.3km/h 78% 0in /  0.0mm
10:04 56.3 °F /  13.5 °C 49.5 °F /  9.7 °C 30in /  1014.2hPa SSO 3.1mph /  5km/h 6mph /  9.7km/h 77.3% 0in /  0.0mm
10:09 56.8 °F /  13.8 °C 49.5 °F /  9.7 °C 30in /  1014.5hPa Sur 3.1mph /  5km/h 5.8mph /  9.3km/h 76.4% 0in /  0.0mm
10:14 57.6 °F /  14.2 °C 49.5 °F /  9.7 °C 30in /  1014.5hPa SSO 3.1mph /  5km/h 6mph /  9.7km/h 74.9% 0in /  0.0mm
10:19 57.7 °F /  14.3 °C 49.6 °F /  9.8 °C 30in /  1014.5hPa SSO 3.1mph /  5km/h 5.8mph /  9.3km/h 74% 0in /  0.0mm
10:24 58.3 °F /  14.6 °C 49.8 °F /  9.9 °C 30in /  1014.6hPa Sur 3.5mph /  5.6km/h 6.9mph /  11.1km/h 73.3% 0in /  0.0mm
10:29 59 °F /  15 °C 50 °F /  10 °C 30in /  1014.6hPa SSE 3.6mph /  5.8km/h 7mph /  11.3km/h 72.1% 0in /  0.0mm
10:34 59.5 °F /  15.3 °C 50 °F /  10 °C 30in /  1014.6hPa SSO 4.3mph /  7km/h 7mph /  11.3km/h 70.8% 0in /  0.0mm
10:39 59.9 °F /  15.5 °C 50.2 °F /  10.1 °C 30in /  1014.7hPa SSO 4.7mph /  7.6km/h 7mph /  11.3km/h 70% 0in /  0.0mm
10:44 60.4 °F /  15.8 °C 50 °F /  10 °C 30in /  1014.7hPa Sur 4.4mph /  7.1km/h 8.7mph /  14km/h 68.8% 0in /  0.0mm
10:49 60.8 °F /  16 °C 50 °F /  10 °C 30in /  1014.7hPa SSO 4.3mph /  6.9km/h 9.2mph /  14.8km/h 67.4% 0in /  0.0mm
10:54 61.3 °F /  16.3 °C 50.2 °F /  10.1 °C 30in /  1014.7hPa Sur 4.3mph /  6.9km/h 7mph /  11.3km/h 66.7% 0in /  0.0mm
10:59 62.1 °F /  16.7 °C 50 °F /  10 °C 30in /  1014.7hPa Sur 4.3mph /  6.9km/h 6.9mph /  11.1km/h 64.8% 0in /  0.0mm
11:04 62.4 °F /  16.9 °C 50.2 °F /  10.1 °C 30in /  1014.7hPa Sur 4.1mph /  6.6km/h 7mph /  11.3km/h 64% 0in /  0.0mm
11:09 63 °F /  17.2 °C 50.5 °F /  10.3 °C 30in /  1014.7hPa Sur 4mph /  6.5km/h 9.2mph /  14.8km/h 63.9% 0in /  0.0mm
11:14 63.1 °F /  17.3 °C 50.5 °F /  10.3 °C 30in /  1014.3hPa Sur 4.8mph /  7.8km/h 9mph /  14.5km/h 63.7% 0in /  0.0mm
11:19 63.1 °F /  17.3 °C 50.5 °F /  10.3 °C 30in /  1014.3hPa Sur 5.2mph /  8.4km/h 8.1mph /  13km/h 63.3% 0in /  0.0mm
11:24 63.5 °F /  17.5 °C 50.5 °F /  10.3 °C 30in /  1014.3hPa Sur 4.6mph /  7.4km/h 8.1mph /  13km/h 62.8% 0in /  0.0mm
11:29 63.9 °F /  17.7 °C 50.2 °F /  10.1 °C 30in /  1014.3hPa SSO 4.3mph /  6.9km/h 8.1mph /  13km/h 61.2% 0in /  0.0mm
11:34 63.9 °F /  17.7 °C 50.2 °F /  10.1 °C 30in /  1014.3hPa SSO 4.9mph /  7.9km/h 8.1mph /  13km/h 61% 0in /  0.0mm
11:39 64 °F /  17.8 °C 50.2 °F /  10.1 °C 30in /  1014.3hPa SSO 5.2mph /  8.4km/h 9.2mph /  14.8km/h 60.6% 0in /  0.0mm
11:44 64.2 °F /  17.9 °C 50.2 °F /  10.1 °C 30in /  1014.2hPa SSO 4.6mph /  7.4km/h 9mph /  14.5km/h 60.2% 0in /  0.0mm
11:49 64.4 °F /  18 °C 50.2 °F /  10.1 °C 30in /  1014.2hPa SSO 4.3mph /  6.9km/h 8.1mph /  13km/h 59.9% 0in /  0.0mm
11:54 64.8 °F /  18.2 °C 50.5 °F /  10.3 °C 30in /  1014.2hPa SSO 3.8mph /  6.1km/h 8mph /  12.9km/h 60% 0in /  0.0mm
11:59 64.9 °F /  18.3 °C 50.4 °F /  10.2 °C 29.9in /  1013.8hPa SO 3.6mph /  5.8km/h 6mph /  9.7km/h 59% 0in /  0.0mm
12:04 65.3 °F /  18.5 °C 50.2 °F /  10.1 °C 29.9in /  1013.8hPa OSO 3.6mph /  5.8km/h 7.6mph /  12.2km/h 57.9% 0in /  0.0mm
12:09 65.3 °F /  18.5 °C 49.8 °F /  9.9 °C 29.9in /  1013.8hPa SO 3.6mph /  5.8km/h 8.1mph /  13km/h 57% 0in /  0.0mm
12:14 65.5 °F /  18.6 °C 49.8 °F /  9.9 °C 29.9in /  1013.5hPa SSO 4.3mph /  7km/h 8.1mph /  13km/h 57% 0in /  0.0mm
12:19 65.7 °F /  18.7 °C 49.5 °F /  9.7 °C 29.9in /  1013.5hPa SO 4.7mph /  7.6km/h 8.1mph /  13km/h 56.1% 0in /  0.0mm
12:24 65.8 °F /  18.8 °C 49.6 °F /  9.8 °C 29.9in /  1013.5hPa OSO 4.7mph /  7.6km/h 8mph /  12.9km/h 56% 0in /  0.0mm
12:29 66 °F /  18.9 °C 49.8 °F /  9.9 °C 29.9in /  1013.1hPa SO 4.7mph /  7.6km/h 7mph /  11.3km/h 56% 0in /  0.0mm
12:34 66.4 °F /  19.1 °C 50 °F /  10 °C 29.9in /  1013.1hPa SO 4.2mph /  6.8km/h 8.1mph /  13km/h 55.9% 0in /  0.0mm
12:39 66.6 °F /  19.2 °C 50 °F /  10 °C 29.9in /  1013.1hPa SO 4mph /  6.5km/h 8.1mph /  13km/h 55% 0in /  0.0mm
12:44 66.7 °F /  19.3 °C 50.2 °F /  10.1 °C 29.9in /  1012.8hPa SSO 4.8mph /  7.8km/h 8.1mph /  13km/h 55.3% 0in /  0.0mm
12:49 66.7 °F /  19.3 °C 50.4 °F /  10.2 °C 29.9in /  1012.8hPa Sur 5.2mph /  8.4km/h 8.5mph /  13.7km/h 55.5% 0in /  0.0mm
12:54 66.9 °F /  19.4 °C 50 °F /  10 °C 29.9in /  1012.8hPa Sur 5.3mph /  8.6km/h 9.2mph /  14.8km/h 54.7% 0in /  0.0mm
12:59 66.9 °F /  19.4 °C 50 °F /  10 °C 29.9in /  1012.6hPa Sur 5.4mph /  8.7km/h 9mph /  14.5km/h 54.5% 0in /  0.0mm
13:04 67.1 °F /  19.5 °C 50 °F /  10 °C 29.9in /  1012.6hPa SSO 5.3mph /  8.5km/h 7mph /  11.3km/h 54% 0in /  0.0mm
13:09 67.3 °F /  19.6 °C 50 °F /  10 °C 29.9in /  1012.6hPa Sur 5.2mph /  8.4km/h 10.2mph /  16.4km/h 53.8% 0in /  0.0mm
13:14 67.6 °F /  19.8 °C 49.8 °F /  9.9 °C 29.9in /  1012.2hPa SSO 4.8mph /  7.8km/h 10.4mph /  16.7km/h 53% 0in /  0.0mm
13:19 67.6 °F /  19.8 °C 49.8 °F /  9.9 °C 29.9in /  1012.2hPa SSO 4.7mph /  7.6km/h 10mph /  16.1km/h 52.8% 0in /  0.0mm
13:24 68 °F /  20 °C 49.6 °F /  9.8 °C 29.9in /  1012.2hPa Sur 4.4mph /  7.1km/h 7mph /  11.3km/h 52% 0in /  0.0mm
13:29 68.4 °F /  20.2 °C 49.1 °F /  9.5 °C 29.9in /  1011.9hPa OSO 4.3mph /  6.9km/h 9.2mph /  14.8km/h 50.6% 0in /  0.0mm
13:34 68.5 °F /  20.3 °C 49.5 °F /  9.7 °C 29.9in /  1011.9hPa SO 4.1mph /  6.6km/h 9mph /  14.5km/h 50.6% 0in /  0.0mm
13:39 68.9 °F /  20.5 °C 49.6 °F /  9.8 °C 29.9in /  1011.9hPa Oeste 4mph /  6.5km/h 7mph /  11.3km/h 50% 0in /  0.0mm
13:44 69.1 °F /  20.6 °C 49.3 °F /  9.6 °C 29.9in /  1011.7hPa OSO 3.7mph /  6km/h 9.2mph /  14.8km/h 49.4% 0in /  0.0mm
13:49 69.3 °F /  20.7 °C 49.1 °F /  9.5 °C 29.9in /  1011.7hPa Oeste 3.6mph /  5.8km/h 9.2mph /  14.8km/h 49% 0in /  0.0mm
13:54 69.3 °F /  20.7 °C 49.3 °F /  9.6 °C 29.9in /  1011.7hPa Oeste 4.8mph /  7.8km/h 10.7mph /  17.2km/h 49% 0in /  0.0mm
13:59 69.3 °F /  20.7 °C 49.3 °F /  9.6 °C 29.9in /  1011.5hPa OSO 5.4mph /  8.7km/h 11mph /  17.7km/h 49% 0in /  0.0mm
14:04 69.4 °F /  20.8 °C 49.1 °F /  9.5 °C 29.9in /  1011.5hPa Oeste 5.8mph /  9.3km/h 9.7mph /  15.6km/h 48.5% 0in /  0.0mm
14:09 69.4 °F /  20.8 °C 49.5 °F /  9.7 °C 29.9in /  1011.5hPa ONO 5.9mph /  9.5km/h 10mph /  16.1km/h 49% 0in /  0.0mm
14:14 69.6 °F /  20.9 °C 49.5 °F /  9.7 °C 29.9in /  1011.5hPa ONO 5.1mph /  8.2km/h 8.5mph /  13.7km/h 48.9% 0in /  0.0mm
14:19 69.6 °F /  20.9 °C 49.5 °F /  9.7 °C 29.9in /  1011.5hPa ONO 4.7mph /  7.6km/h 9mph /  14.5km/h 48.6% 0in /  0.0mm
14:24 69.8 °F /  21 °C 49.5 °F /  9.7 °C 29.9in /  1011.5hPa Oeste 5mph /  8.1km/h 9.2mph /  14.8km/h 48.3% 0in /  0.0mm
14:29 69.8 °F /  21 °C 49.3 °F /  9.6 °C 29.9in /  1011.3hPa OSO 5.2mph /  8.4km/h 9mph /  14.5km/h 48% 0in /  0.0mm
14:34 70.2 °F /  21.2 °C 49.5 °F /  9.7 °C 29.9in /  1011.3hPa Oeste 5.2mph /  8.4km/h 9.2mph /  14.8km/h 48.1% 0in /  0.0mm
14:39 70.3 °F /  21.3 °C 49.5 °F /  9.7 °C 29.9in /  1011.3hPa OSO 5.2mph /  8.4km/h 9mph /  14.5km/h 47.7% 0in /  0.0mm
14:44 70.3 °F /  21.3 °C 49.3 °F /  9.6 °C 29.9in /  1011.0hPa Oeste 4.6mph /  7.4km/h 8mph /  12.9km/h 47.2% 0in /  0.0mm
14:49 70.3 °F /  21.3 °C 49.3 °F /  9.6 °C 29.9in /  1011.0hPa SO 4.3mph /  6.9km/h 8.1mph /  13km/h 47.3% 0in /  0.0mm
14:54 70.5 °F /  21.4 °C 49.3 °F /  9.6 °C 29.9in /  1011.0hPa SSO 4.3mph /  6.9km/h 8mph /  12.9km/h 47% 0in /  0.0mm
14:59 70.5 °F /  21.4 °C 49.3 °F /  9.6 °C 29.9in /  1010.9hPa SO 4.3mph /  6.9km/h 7mph /  11.3km/h 47% 0in /  0.0mm
15:04 70.9 °F /  21.6 °C 49.6 °F /  9.8 °C 29.9in /  1010.9hPa OSO 4.1mph /  6.6km/h 7mph /  11.3km/h 47% 0in /  0.0mm
15:09 71.1 °F /  21.7 °C 49.6 °F /  9.8 °C 29.9in /  1010.9hPa SO 4mph /  6.5km/h 6mph /  9.7km/h 47% 0in /  0.0mm
15:14 71.2 °F /  21.8 °C 49.8 °F /  9.9 °C 29.9in /  1010.8hPa SO 3.4mph /  5.4km/h 6.9mph /  11.1km/h 46.8% 0in /  0.0mm
15:19 71.4 °F /  21.9 °C 49.6 °F /  9.8 °C 29.9in /  1010.8hPa SSE 3.1mph /  5km/h 7mph /  11.3km/h 46% 0in /  0.0mm
15:24 71.4 °F /  21.9 °C 49.8 °F /  9.9 °C 29.9in /  1010.8hPa SO 2.6mph /  4.2km/h 5mph /  8km/h 46.4% 0in /  0.0mm
15:29 71.4 °F /  21.9 °C 50.2 °F /  10.1 °C 29.8in /  1010.6hPa OSO 2.4mph /  3.9km/h 4mph /  6.4km/h 47% 0in /  0.0mm
15:34 71.4 °F /  21.9 °C 50 °F /  10 °C 29.8in /  1010.6hPa Oeste 2.1mph /  3.4km/h 3mph /  4.8km/h 46.7% 0in /  0.0mm
15:39 71.6 °F /  22 °C 49.1 °F /  9.5 °C 29.8in /  1010.6hPa SO 2mph /  3.2km/h 7.6mph /  12.2km/h 45.1% 0in /  0.0mm
15:44 71.4 °F /  21.9 °C 48.4 °F /  9.1 °C 29.8in /  1010.5hPa SSO 2.6mph /  4.2km/h 8.1mph /  13km/h 44% 0in /  0.0mm
15:49 71.4 °F /  21.9 °C 48.7 °F /  9.3 °C 29.8in /  1010.5hPa SSO 2.9mph /  4.7km/h 6mph /  9.7km/h 44.4% 0in /  0.0mm
15:54 71.4 °F /  21.9 °C 48.4 °F /  9.1 °C 29.8in /  1010.5hPa SSO 3.4mph /  5.4km/h 6.9mph /  11.1km/h 44% 0in /  0.0mm
15:59 71.2 °F /  21.8 °C 48.7 °F /  9.3 °C 29.8in /  1010.4hPa SSO 3.6mph /  5.8km/h 8.1mph /  13km/h 44.7% 0in /  0.0mm
16:04 71.2 °F /  21.8 °C 48.7 °F /  9.3 °C 29.8in /  1010.4hPa Sur 4.4mph /  7.1km/h 8.1mph /  13km/h 45% 0in /  0.0mm
16:09 71.1 °F /  21.7 °C 49.3 °F /  9.6 °C 29.8in /  1010.4hPa Sur 4.7mph /  7.6km/h 8mph /  12.9km/h 46% 0in /  0.0mm
16:14 71.1 °F /  21.7 °C 49.3 °F /  9.6 °C 29.8in /  1010.2hPa Sur 4.2mph /  6.8km/h 6mph /  9.7km/h 46% 0in /  0.0mm
16:19 71.1 °F /  21.7 °C 49.1 °F /  9.5 °C 29.8in /  1010.2hPa SSE 4mph /  6.5km/h 6mph /  9.7km/h 46% 0in /  0.0mm
16:24 70.9 °F /  21.6 °C 49.1 °F /  9.5 °C 29.8in /  1010.2hPa Sur 3.7mph /  6km/h 6.9mph /  11.1km/h 46% 0in /  0.0mm
16:29 70.9 °F /  21.6 °C 49.1 °F /  9.5 °C 29.8in /  1010.0hPa Sur 3.6mph /  5.8km/h 7mph /  11.3km/h 46% 0in /  0.0mm
16:34 70.9 °F /  21.6 °C 49.1 °F /  9.5 °C 29.8in /  1010.0hPa Sur 3.9mph /  6.2km/h 6.2mph /  10km/h 46% 0in /  0.0mm
16:39 70.9 °F /  21.6 °C 49.3 °F /  9.6 °C 29.8in /  1010.0hPa Sur 4mph /  6.5km/h 7mph /  11.3km/h 46.6% 0in /  0.0mm
16:44 70.7 °F /  21.5 °C 49.5 °F /  9.7 °C 29.8in /  1009.9hPa SSE 4mph /  6.5km/h 7.4mph /  11.9km/h 47% 0in /  0.0mm
16:49 70.5 °F /  21.4 °C 49.8 °F /  9.9 °C 29.8in /  1009.9hPa SSE 4mph /  6.5km/h 7mph /  11.3km/h 47.7% 0in /  0.0mm
16:54 70.3 °F /  21.3 °C 50 °F /  10 °C 29.8in /  1009.9hPa SSE 4.2mph /  6.8km/h 7mph /  11.3km/h 48.4% 0in /  0.0mm
16:59 70.2 °F /  21.2 °C 50.2 °F /  10.1 °C 29.8in /  1009.6hPa SSE 4.3mph /  6.9km/h 6.2mph /  10km/h 49% 0in /  0.0mm
17:04 70.2 °F /  21.2 °C 50.4 °F /  10.2 °C 29.8in /  1009.6hPa SSE 3.8mph /  6.1km/h 6mph /  9.7km/h 49.8% 0in /  0.0mm
17:09 70 °F /  21.1 °C 50.7 °F /  10.4 °C 29.8in /  1009.7hPa Sur 3.6mph /  5.8km/h 6.2mph /  10km/h 50.6% 0in /  0.0mm
17:14 69.6 °F /  20.9 °C 50.9 °F /  10.5 °C 29.8in /  1009.7hPa Sur 3.9mph /  6.2km/h 6.2mph /  10km/h 51.4% 0in /  0.0mm
17:19 69.6 °F /  20.9 °C 51.1 °F /  10.6 °C 29.8in /  1009.7hPa Sur 4mph /  6.5km/h 6mph /  9.7km/h 52% 0in /  0.0mm
17:24 69.4 °F /  20.8 °C 51.4 °F /  10.8 °C 29.8in /  1009.7hPa Sur 3.4mph /  5.5km/h 6mph /  9.7km/h 52.7% 0in /  0.0mm
17:29 69.3 °F /  20.7 °C 51.6 °F /  10.9 °C 29.8in /  1009.6hPa SE 3.1mph /  5km/h 4.6mph /  7.4km/h 53.3% 0in /  0.0mm
17:34 68.9 °F /  20.5 °C 52.5 °F /  11.4 °C 29.8in /  1009.6hPa SE 3mph /  4.8km/h 5.8mph /  9.3km/h 55.7% 0in /  0.0mm
17:39 68.5 °F /  20.3 °C 52.9 °F /  11.6 °C 29.8in /  1009.7hPa SE 2.9mph /  4.7km/h 6mph /  9.7km/h 57.5% 0in /  0.0mm
17:44 68.2 °F /  20.1 °C 52.9 °F /  11.6 °C 29.8in /  1009.7hPa SSE 3.4mph /  5.4km/h 5mph /  8km/h 58.3% 0in /  0.0mm
17:49 67.8 °F /  19.9 °C 52.9 °F /  11.6 °C 29.8in /  1009.7hPa Sur 3.6mph /  5.8km/h 5.2mph /  8.4km/h 59% 0in /  0.0mm
17:54 67.6 °F /  19.8 °C 53.1 °F /  11.7 °C 29.8in /  1009.8hPa SO 3.6mph /  5.8km/h 5.4mph /  8.7km/h 59.8% 0in /  0.0mm
17:59 67.5 °F /  19.7 °C 53.2 °F /  11.8 °C 29.8in /  1009.8hPa SO 3.6mph /  5.8km/h 8.5mph /  13.7km/h 60.6% 0in /  0.0mm
18:04 66.9 °F /  19.4 °C 53.6 °F /  12 °C 29.8in /  1009.8hPa SO 3.9mph /  6.2km/h 9.7mph /  15.6km/h 62.2% 0in /  0.0mm
18:09 66.4 °F /  19.1 °C 53.6 °F /  12 °C 29.8in /  1010.0hPa SO 4mph /  6.5km/h 10.7mph /  17.2km/h 63.5% 0in /  0.0mm
18:14 65.8 °F /  18.8 °C 53.2 °F /  11.8 °C 29.8in /  1010.0hPa SSO 4.5mph /  7.2km/h 12.3mph /  19.8km/h 64% 0in /  0.0mm
18:19 65.3 °F /  18.5 °C 53.1 °F /  11.7 °C 29.8in /  1010.0hPa SSO 4.7mph /  7.6km/h 16.1mph /  25.9km/h 64.8% 0in /  0.0mm
18:24 64.9 °F /  18.3 °C 52.9 °F /  11.6 °C 29.8in /  1010.3hPa SO 6.7mph /  10.8km/h 16mph /  25.7km/h 65% 0in /  0.0mm
18:29 64.8 °F /  18.2 °C 53.1 °F /  11.7 °C 29.8in /  1010.3hPa SSO 7.6mph /  12.2km/h 17.3mph /  27.8km/h 66% 0in /  0.0mm
18:34 64.4 °F /  18 °C 53.1 °F /  11.7 °C 29.8in /  1010.3hPa SO 8.3mph /  13.4km/h 17mph /  27.4km/h 66.8% 0in /  0.0mm
18:39 64 °F /  17.8 °C 53.2 °F /  11.8 °C 29.8in /  1010.5hPa SSO 8.7mph /  14km/h 16mph /  25.7km/h 67.8% 0in /  0.0mm
18:44 63.9 °F /  17.7 °C 53.2 °F /  11.8 °C 29.8in /  1010.5hPa SSO 8mph /  12.8km/h 14mph /  22.5km/h 68.7% 0in /  0.0mm
18:49 63.5 °F /  17.5 °C 53.4 °F /  11.9 °C 29.8in /  1010.5hPa SSO 7.6mph /  12.2km/h 11.5mph /  18.5km/h 69.7% 0in /  0.0mm
18:54 63.1 °F /  17.3 °C 53.6 °F /  12 °C 29.8in /  1010.6hPa SSO 6.1mph /  9.8km/h 12mph /  19.3km/h 70.7% 0in /  0.0mm
18:59 63 °F /  17.2 °C 53.8 °F /  12.1 °C 29.8in /  1010.6hPa SSO 5.4mph /  8.7km/h 11.8mph /  19km/h 71.9% 0in /  0.0mm
19:04 63 °F /  17.2 °C 54.1 °F /  12.3 °C 29.8in /  1010.6hPa SSO 5.8mph /  9.3km/h 12.3mph /  19.8km/h 73% 0in /  0.0mm
19:09 62.8 °F /  17.1 °C 54.3 °F /  12.4 °C 29.8in /  1010.6hPa SSO 5.9mph /  9.5km/h 12mph /  19.3km/h 73.7% 0in /  0.0mm
19:14 62.8 °F /  17.1 °C 54.5 °F /  12.5 °C 29.8in /  1010.4hPa SO 5.4mph /  8.7km/h 11mph /  17.7km/h 74.4% 0in /  0.0mm
19:19 62.6 °F /  17 °C 54.7 °F /  12.6 °C 29.8in /  1010.4hPa SSO 5.2mph /  8.4km/h 12.7mph /  20.4km/h 75.3% 0in /  0.0mm
19:24 62.4 °F /  16.9 °C 54.9 °F /  12.7 °C 29.8in /  1010.4hPa Sur 5.7mph /  9.1km/h 13mph /  20.9km/h 76% 0in /  0.0mm
19:29 62.4 °F /  16.9 °C 54.9 °F /  12.7 °C 29.8in /  1010.0hPa Sur 5.9mph /  9.5km/h 8mph /  12.9km/h 76% 0in /  0.0mm
19:34 62.4 °F /  16.9 °C 54.9 °F /  12.7 °C 29.8in /  1010.0hPa SSO 4.6mph /  7.4km/h 7mph /  11.3km/h 76.6% 0in /  0.0mm
19:39 62.2 °F /  16.8 °C 54.9 °F /  12.7 °C 29.8in /  1010.1hPa SO 4mph /  6.5km/h 9.2mph /  14.8km/h 77% 0in /  0.0mm
19:44 62.1 °F /  16.7 °C 54.9 °F /  12.7 °C 29.8in /  1010.1hPa SO 4.2mph /  6.8km/h 9mph /  14.5km/h 77% 0in /  0.0mm
19:49 62.1 °F /  16.7 °C 55 °F /  12.8 °C 29.8in /  1010.1hPa OSO 4.3mph /  6.9km/h 9.2mph /  14.8km/h 77.8% 0in /  0.0mm
19:54 62.1 °F /  16.7 °C 55 °F /  12.8 °C 29.8in /  1010.3hPa SO 3.9mph /  6.2km/h 9mph /  14.5km/h 78% 0in /  0.0mm
19:59 61.9 °F /  16.6 °C 55 °F /  12.8 °C 29.8in /  1010.3hPa SO 3.6mph /  5.8km/h 7mph /  11.3km/h 78.3% 0in /  0.0mm
20:04 61.9 °F /  16.6 °C 55.2 °F /  12.9 °C 29.8in /  1010.3hPa SSO 3.6mph /  5.8km/h 6mph /  9.7km/h 79% 0in /  0.0mm
20:09 61.7 °F /  16.5 °C 55 °F /  12.8 °C 29.8in /  1010.4hPa SSO 3.6mph /  5.8km/h 5mph /  8km/h 79% 0in /  0.0mm
20:14 61.7 °F /  16.5 °C 55 °F /  12.8 °C 29.8in /  1010.4hPa SSO 2.5mph /  4km/h 5mph /  8km/h 79% 0in /  0.0mm
20:19 61.5 °F /  16.4 °C 54.9 °F /  12.7 °C 29.8in /  1010.4hPa SO 2mph /  3.2km/h 5.4mph /  8.7km/h 79% 0in /  0.0mm
20:24 61.5 °F /  16.4 °C 54.9 °F /  12.7 °C 29.8in /  1010.5hPa SSO 2.6mph /  4.2km/h 7.4mph /  11.9km/h 79% 0in /  0.0mm
20:29 61.3 °F /  16.3 °C 54.9 °F /  12.7 °C 29.8in /  1010.5hPa SSO 2.9mph /  4.7km/h 7.4mph /  11.9km/h 79% 0in /  0.0mm
20:34 61.3 °F /  16.3 °C 54.9 °F /  12.7 °C 29.8in /  1010.5hPa SSO 4.5mph /  7.2km/h 8.5mph /  13.7km/h 79.1% 0in /  0.0mm
20:39 61.2 °F /  16.2 °C 54.9 °F /  12.7 °C 29.8in /  1010.5hPa SO 5.2mph /  8.4km/h 9mph /  14.5km/h 80% 0in /  0.0mm
20:44 61.2 °F /  16.2 °C 54.9 °F /  12.7 °C 29.8in /  1010.5hPa Sur 4.8mph /  7.8km/h 8mph /  12.9km/h 80% 0in /  0.0mm
20:49 61 °F /  16.1 °C 54.9 °F /  12.7 °C 29.8in /  1010.5hPa Sur 4.7mph /  7.6km/h 8.1mph /  13km/h 80% 0in /  0.0mm
20:54 61 °F /  16.1 °C 54.7 °F /  12.6 °C 29.8in /  1010.5hPa Sur 4.7mph /  7.6km/h 8.1mph /  13km/h 80% 0in /  0.0mm
20:59 60.6 °F /  15.9 °C 54.5 °F /  12.5 °C 29.8in /  1010.3hPa Sur 4.7mph /  7.6km/h 8mph /  12.9km/h 80.1% 0in /  0.0mm
21:04 60.6 °F /  15.9 °C 54.9 °F /  12.7 °C 29.8in /  1010.3hPa SSO 4.2mph /  6.8km/h 6.4mph /  10.3km/h 81% 0in /  0.0mm
21:09 60.6 °F /  15.9 °C 54.7 °F /  12.6 °C 29.8in /  1010.3hPa SSO 4mph /  6.5km/h 8.5mph /  13.7km/h 81% 0in /  0.0mm
21:14 60.6 °F /  15.9 °C 54.7 °F /  12.6 °C 29.8in /  1010.3hPa SSO 4.5mph /  7.2km/h 9.7mph /  15.6km/h 81% 0in /  0.0mm
21:19 60.6 °F /  15.9 °C 54.5 °F /  12.5 °C 29.8in /  1010.3hPa SO 4.7mph /  7.6km/h 10mph /  16.1km/h 80.3% 0in /  0.0mm
21:24 60.6 °F /  15.9 °C 54.3 °F /  12.4 °C 29.8in /  1010.3hPa SSO 5mph /  8.1km/h 10mph /  16.1km/h 80% 0in /  0.0mm
21:29 60.6 °F /  15.9 °C 54.3 °F /  12.4 °C 29.8in /  1010.2hPa SSO 5.2mph /  8.4km/h 7mph /  11.3km/h 80% 0in /  0.0mm
21:34 60.6 °F /  15.9 °C 54.1 °F /  12.3 °C 29.8in /  1010.2hPa OSO 4.1mph /  6.6km/h 7.4mph /  11.9km/h 79.1% 0in /  0.0mm
21:39 60.6 °F /  15.9 °C 54.1 °F /  12.3 °C 29.8in /  1010.2hPa SO 3.6mph /  5.8km/h 7mph /  11.3km/h 79% 0in /  0.0mm
21:44 60.6 °F /  15.9 °C 54.1 °F /  12.3 °C 29.8in /  1010.1hPa SO 3.6mph /  5.8km/h 6.2mph /  10km/h 79% 0in /  0.0mm
21:49 60.6 °F /  15.9 °C 54.1 °F /  12.3 °C 29.8in /  1010.1hPa SO 3.6mph /  5.8km/h 6.9mph /  11.1km/h 79% 0in /  0.0mm
21:54 60.6 °F /  15.9 °C 54.1 °F /  12.3 °C 29.8in /  1010.1hPa SO 3.9mph /  6.2km/h 7mph /  11.3km/h 79% 0in /  0.0mm
21:59 60.6 °F /  15.9 °C 54.1 °F /  12.3 °C 29.8in /  1010.1hPa SSO 4mph /  6.5km/h 8.1mph /  13km/h 79% 0in /  0.0mm
22:04 60.6 °F /  15.9 °C 54.1 °F /  12.3 °C 29.8in /  1010.1hPa SSO 4mph /  6.5km/h 8mph /  12.9km/h 79% 0in /  0.0mm
22:09 60.4 °F /  15.8 °C 54 °F /  12.2 °C 29.8in /  1010.1hPa SSO 4mph /  6.5km/h 8.5mph /  13.7km/h 79% 0in /  0.0mm
22:14 60.3 °F /  15.7 °C 54 °F /  12.2 °C 29.8in /  1010.0hPa SSO 4.5mph /  7.2km/h 10.7mph /  17.2km/h 79.5% 0in /  0.0mm
22:19 60.3 °F /  15.7 °C 54.1 °F /  12.3 °C 29.8in /  1010.0hPa SSO 4.7mph /  7.6km/h 11.2mph /  18km/h 80% 0in /  0.0mm
22:24 60.3 °F /  15.7 °C 54.1 °F /  12.3 °C 29.8in /  1010.0hPa SSO 5.5mph /  8.9km/h 12mph /  19.3km/h 80% 0in /  0.0mm
22:29 60.1 °F /  15.6 °C 54 °F /  12.2 °C 29.8in /  1009.9hPa SO 5.9mph /  9.5km/h 12mph /  19.3km/h 80% 0in /  0.0mm
22:34 60.1 °F /  15.6 °C 54 °F /  12.2 °C 29.8in /  1009.9hPa SSO 5.9mph /  9.5km/h 12.7mph /  20.4km/h 80% 0in /  0.0mm
22:39 60.1 °F /  15.6 °C 53.8 °F /  12.1 °C 29.8in /  1009.9hPa SSO 5.9mph /  9.5km/h 13mph /  20.9km/h 80% 0in /  0.0mm
22:44 59.9 °F /  15.5 °C 53.8 °F /  12.1 °C 29.8in /  1009.9hPa SO 6.6mph /  10.6km/h 12.7mph /  20.4km/h 80% 0in /  0.0mm
22:49 59.9 °F /  15.5 °C 53.8 °F /  12.1 °C 29.8in /  1009.9hPa SSO 6.9mph /  11.1km/h 13mph /  20.9km/h 80% 0in /  0.0mm
22:54 59.7 °F /  15.4 °C 53.6 °F /  12 °C 29.8in /  1010.0hPa SSO 6.2mph /  10km/h 8.1mph /  13km/h 80.2% 0in /  0.0mm
22:59 59.7 °F /  15.4 °C 54 °F /  12.2 °C 29.8in /  1010.0hPa SSO 5.9mph /  9.5km/h 11.4mph /  18.3km/h 81% 0in /  0.0mm
23:04 59.7 °F /  15.4 °C 54 °F /  12.2 °C 29.8in /  1010.0hPa Sur 5.9mph /  9.5km/h 12mph /  19.3km/h 81% 0in /  0.0mm
23:09 59.5 °F /  15.3 °C 53.8 °F /  12.1 °C 29.8in /  1010.0hPa Sur 5.9mph /  9.5km/h 12mph /  19.3km/h 81% 0in /  0.0mm
23:14 59.4 °F /  15.2 °C 53.6 °F /  12 °C 29.8in /  1010.0hPa SSE 6.1mph /  9.8km/h 10mph /  16.1km/h 81% 0in /  0.0mm
23:19 58.8 °F /  14.9 °C 52.9 °F /  11.6 °C 29.8in /  1010.0hPa SSE 6.2mph /  10km/h 9.2mph /  14.8km/h 81% 0in /  0.0mm
23:24 58.1 °F /  14.5 °C 52.5 °F /  11.4 °C 29.8in /  1010.0hPa SSE 6.2mph /  10km/h 9mph /  14.5km/h 82.1% 0in /  0.0mm
23:29 57.7 °F /  14.3 °C 52.7 °F /  11.5 °C 29.8in /  1010.0hPa Sur 6.2mph /  10km/h 9.2mph /  14.8km/h 83.4% 0in /  0.0mm
23:34 57.7 °F /  14.3 °C 52.9 °F /  11.6 °C 29.8in /  1010.0hPa Sur 6mph /  9.6km/h 9.2mph /  14.8km/h 84% 0in /  0.0mm
23:39 57.7 °F /  14.3 °C 52.9 °F /  11.6 °C 29.8in /  1010.2hPa Sur 5.9mph /  9.5km/h 9mph /  14.5km/h 84% 0in /  0.0mm
23:44 57.9 °F /  14.4 °C 53.1 °F /  11.7 °C 29.8in /  1010.2hPa SSE 5.5mph /  8.9km/h 8.5mph /  13.7km/h 84% 0in /  0.0mm
23:49 57.9 °F /  14.4 °C 53.1 °F /  11.7 °C 29.8in /  1010.2hPa SSE 5.4mph /  8.7km/h 10.4mph /  16.7km/h 84% 0in /  0.0mm
23:54 57.7 °F /  14.3 °C 52.7 °F /  11.5 °C 29.8in /  1010.2hPa SE 6mph /  9.6km/h 10mph /  16.1km/h 83.3% 0in /  0.0mm
23:59 57.2 °F /  14 °C 52.2 °F /  11.2 °C 29.8in /  1009.6hPa SSE 6.2mph /  10km/h 9mph /  14.5km/h 83% 0in /  0.0mm
Murcia-Puente Tocinos, Espa?a
Compliments of Weather Underground - 3.25 mb

La estación de MeteoMurcia.com, publica sus datos en los siguientes proyectos:

Weather Underground PWS IMURCIAP2 Meteoclimatic www.awekas.at

W3Counter
Web Analytics